<?xml version="1.0" encoding="UTF-8" standalone="no" ?>
<gpx xmlns="http://www.topografix.com/GPX/1/1" xmlns:xsi="http://www.w3.org/2001/XMLSchema-instance" xsi:schemaLocation="http://www.topografix.com/GPX/1/1 http://www.topografix.com/GPX/1/1/gpx.xsd" version="1.1" creator="VisuGPX - https://www.visugpx.com">
  <metadata>
    <name>Etape 2 Férel - Les Moûtiers</name>
    <desc><![CDATA[Randonnée vélo Rennes - Hendaye, empruntant la Vélodyssée à partir de Saint-Brevin-Les-Pins. ]]></desc>
  </metadata>
  <trk>
    <name><![CDATA[Sequence 22]]></name>
    <trkseg>
      <trkpt lat="47.24177" lon="-2.17063">
        <ele>5</ele>
        <time>2016-07-22T12:04:17Z</time>
      </trkpt>
      <trkpt lat="47.24177" lon="-2.17063">
        <ele>5</ele>
        <time>2016-07-22T12:04:22Z</time>
      </trkpt>
      <trkpt lat="47.24177" lon="-2.17064">
        <ele>5</ele>
        <time>2016-07-22T12:04:27Z</time>
      </trkpt>
      <trkpt lat="47.24174" lon="-2.17065">
        <ele>4</ele>
        <time>2016-07-22T12:04:32Z</time>
      </trkpt>
      <trkpt lat="47.24159" lon="-2.17064">
        <ele>4</ele>
        <time>2016-07-22T12:04:37Z</time>
      </trkpt>
      <trkpt lat="47.24137" lon="-2.17067">
        <ele>3</ele>
        <time>2016-07-22T12:04:42Z</time>
      </trkpt>
      <trkpt lat="47.24115" lon="-2.17069">
        <ele>3</ele>
        <time>2016-07-22T12:04:47Z</time>
      </trkpt>
      <trkpt lat="47.24101" lon="-2.17067">
        <ele>4</ele>
        <time>2016-07-22T12:04:52Z</time>
      </trkpt>
      <trkpt lat="47.24104" lon="-2.17048">
        <ele>4</ele>
        <time>2016-07-22T12:04:57Z</time>
      </trkpt>
      <trkpt lat="47.241" lon="-2.17042">
        <ele>4</ele>
        <time>2016-07-22T12:05:02Z</time>
      </trkpt>
      <trkpt lat="47.24098" lon="-2.17063">
        <ele>6</ele>
        <time>2016-07-22T12:05:07Z</time>
      </trkpt>
      <trkpt lat="47.24084" lon="-2.17077">
        <ele>4</ele>
        <time>2016-07-22T12:05:12Z</time>
      </trkpt>
      <trkpt lat="47.24061" lon="-2.17083">
        <ele>5</ele>
        <time>2016-07-22T12:05:17Z</time>
      </trkpt>
      <trkpt lat="47.24038" lon="-2.17089">
        <ele>4</ele>
        <time>2016-07-22T12:05:22Z</time>
      </trkpt>
      <trkpt lat="47.24015" lon="-2.17095">
        <ele>4</ele>
        <time>2016-07-22T12:05:27Z</time>
      </trkpt>
      <trkpt lat="47.23992" lon="-2.17103">
        <ele>3</ele>
        <time>2016-07-22T12:05:32Z</time>
      </trkpt>
      <trkpt lat="47.23969" lon="-2.17111">
        <ele>4</ele>
        <time>2016-07-22T12:05:37Z</time>
      </trkpt>
      <trkpt lat="47.23949" lon="-2.17119">
        <ele>4</ele>
        <time>2016-07-22T12:05:42Z</time>
      </trkpt>
      <trkpt lat="47.2394" lon="-2.17105">
        <ele>5</ele>
        <time>2016-07-22T12:05:47Z</time>
      </trkpt>
      <trkpt lat="47.23933" lon="-2.17087">
        <ele>5</ele>
        <time>2016-07-22T12:05:52Z</time>
      </trkpt>
      <trkpt lat="47.23924" lon="-2.17059">
        <ele>3</ele>
        <time>2016-07-22T12:05:57Z</time>
      </trkpt>
      <trkpt lat="47.23916" lon="-2.17025">
        <ele>4</ele>
        <time>2016-07-22T12:06:02Z</time>
      </trkpt>
      <trkpt lat="47.23906" lon="-2.16984">
        <ele>2</ele>
        <time>2016-07-22T12:06:08Z</time>
      </trkpt>
      <trkpt lat="47.23894" lon="-2.16944">
        <ele>1</ele>
        <time>2016-07-22T12:06:16Z</time>
      </trkpt>
      <trkpt lat="47.23892" lon="-2.16943">
        <ele>4</ele>
        <time>2016-07-22T12:06:17Z</time>
      </trkpt>
      <trkpt lat="47.2388" lon="-2.16948">
        <ele>-2</ele>
        <time>2016-07-22T12:06:22Z</time>
      </trkpt>
      <trkpt lat="47.23862" lon="-2.16962">
        <ele>-5</ele>
        <time>2016-07-22T12:06:27Z</time>
      </trkpt>
      <trkpt lat="47.23845" lon="-2.1698">
        <ele>-2</ele>
        <time>2016-07-22T12:06:32Z</time>
      </trkpt>
      <trkpt lat="47.23829" lon="-2.17">
        <ele>2</ele>
        <time>2016-07-22T12:06:37Z</time>
      </trkpt>
      <trkpt lat="47.2382" lon="-2.17019">
        <ele>3</ele>
        <time>2016-07-22T12:06:42Z</time>
      </trkpt>
      <trkpt lat="47.23815" lon="-2.17033">
        <ele>1</ele>
        <time>2016-07-22T12:06:47Z</time>
      </trkpt>
      <trkpt lat="47.23803" lon="-2.17036">
        <ele>4</ele>
        <time>2016-07-22T12:06:52Z</time>
      </trkpt>
      <trkpt lat="47.23791" lon="-2.17042">
        <ele>5</ele>
        <time>2016-07-22T12:06:57Z</time>
      </trkpt>
      <trkpt lat="47.23777" lon="-2.17055">
        <ele>7</ele>
        <time>2016-07-22T12:07:02Z</time>
      </trkpt>
      <trkpt lat="47.23758" lon="-2.17079">
        <ele>7</ele>
        <time>2016-07-22T12:07:07Z</time>
      </trkpt>
      <trkpt lat="47.23743" lon="-2.17102">
        <ele>8</ele>
        <time>2016-07-22T12:07:12Z</time>
      </trkpt>
      <trkpt lat="47.23728" lon="-2.17122">
        <ele>6</ele>
        <time>2016-07-22T12:07:17Z</time>
      </trkpt>
      <trkpt lat="47.23711" lon="-2.17143">
        <ele>6</ele>
        <time>2016-07-22T12:07:22Z</time>
      </trkpt>
      <trkpt lat="47.23694" lon="-2.17169">
        <ele>6</ele>
        <time>2016-07-22T12:07:27Z</time>
      </trkpt>
      <trkpt lat="47.23674" lon="-2.17192">
        <ele>8</ele>
        <time>2016-07-22T12:07:32Z</time>
      </trkpt>
      <trkpt lat="47.23656" lon="-2.17217">
        <ele>7</ele>
        <time>2016-07-22T12:07:37Z</time>
      </trkpt>
      <trkpt lat="47.23641" lon="-2.17251">
        <ele>5</ele>
        <time>2016-07-22T12:07:42Z</time>
      </trkpt>
      <trkpt lat="47.23631" lon="-2.17286">
        <ele>5</ele>
        <time>2016-07-22T12:07:47Z</time>
      </trkpt>
      <trkpt lat="47.23622" lon="-2.17323">
        <ele>4</ele>
        <time>2016-07-22T12:07:52Z</time>
      </trkpt>
      <trkpt lat="47.23615" lon="-2.17359">
        <ele>3</ele>
        <time>2016-07-22T12:07:57Z</time>
      </trkpt>
      <trkpt lat="47.23602" lon="-2.17409">
        <ele>4</ele>
        <time>2016-07-22T12:08:04Z</time>
      </trkpt>
      <trkpt lat="47.23595" lon="-2.17429">
        <ele>2</ele>
        <time>2016-07-22T12:08:07Z</time>
      </trkpt>
      <trkpt lat="47.23584" lon="-2.17461">
        <ele>2</ele>
        <time>2016-07-22T12:08:12Z</time>
      </trkpt>
      <trkpt lat="47.23572" lon="-2.17494">
        <ele>2</ele>
        <time>2016-07-22T12:08:17Z</time>
      </trkpt>
      <trkpt lat="47.2356" lon="-2.17524">
        <ele>3</ele>
        <time>2016-07-22T12:08:22Z</time>
      </trkpt>
      <trkpt lat="47.23543" lon="-2.1755">
        <ele>4</ele>
        <time>2016-07-22T12:08:27Z</time>
      </trkpt>
      <trkpt lat="47.23521" lon="-2.17562">
        <ele>3</ele>
        <time>2016-07-22T12:08:32Z</time>
      </trkpt>
      <trkpt lat="47.23497" lon="-2.1756">
        <ele>6</ele>
        <time>2016-07-22T12:08:37Z</time>
      </trkpt>
      <trkpt lat="47.23481" lon="-2.17562">
        <ele>6</ele>
        <time>2016-07-22T12:08:42Z</time>
      </trkpt>
      <trkpt lat="47.23462" lon="-2.17554">
        <ele>6</ele>
        <time>2016-07-22T12:08:47Z</time>
      </trkpt>
      <trkpt lat="47.23441" lon="-2.17554">
        <ele>7</ele>
        <time>2016-07-22T12:08:52Z</time>
      </trkpt>
      <trkpt lat="47.23418" lon="-2.17547">
        <ele>6</ele>
        <time>2016-07-22T12:08:57Z</time>
      </trkpt>
      <trkpt lat="47.23393" lon="-2.17543">
        <ele>4</ele>
        <time>2016-07-22T12:09:02Z</time>
      </trkpt>
      <trkpt lat="47.2337" lon="-2.17544">
        <ele>4</ele>
        <time>2016-07-22T12:09:07Z</time>
      </trkpt>
      <trkpt lat="47.23354" lon="-2.17559">
        <ele>4</ele>
        <time>2016-07-22T12:09:12Z</time>
      </trkpt>
      <trkpt lat="47.23346" lon="-2.17582">
        <ele>4</ele>
        <time>2016-07-22T12:09:17Z</time>
      </trkpt>
      <trkpt lat="47.23346" lon="-2.17615">
        <ele>3</ele>
        <time>2016-07-22T12:09:22Z</time>
      </trkpt>
      <trkpt lat="47.23346" lon="-2.17656">
        <ele>1</ele>
        <time>2016-07-22T12:09:28Z</time>
      </trkpt>
      <trkpt lat="47.23347" lon="-2.17694">
        <ele>1</ele>
        <time>2016-07-22T12:09:34Z</time>
      </trkpt>
      <trkpt lat="47.23346" lon="-2.17728">
        <ele>2</ele>
        <time>2016-07-22T12:09:39Z</time>
      </trkpt>
      <trkpt lat="47.23344" lon="-2.17753">
        <ele>3</ele>
        <time>2016-07-22T12:09:43Z</time>
      </trkpt>
      <trkpt lat="47.23342" lon="-2.1778">
        <ele>2</ele>
        <time>2016-07-22T12:09:47Z</time>
      </trkpt>
      <trkpt lat="47.23333" lon="-2.17811">
        <ele>3</ele>
        <time>2016-07-22T12:09:52Z</time>
      </trkpt>
      <trkpt lat="47.23321" lon="-2.17841">
        <ele>4</ele>
        <time>2016-07-22T12:09:57Z</time>
      </trkpt>
      <trkpt lat="47.23306" lon="-2.17865">
        <ele>4</ele>
        <time>2016-07-22T12:10:02Z</time>
      </trkpt>
      <trkpt lat="47.23287" lon="-2.17884">
        <ele>8</ele>
        <time>2016-07-22T12:10:07Z</time>
      </trkpt>
      <trkpt lat="47.23266" lon="-2.17895">
        <ele>8</ele>
        <time>2016-07-22T12:10:12Z</time>
      </trkpt>
      <trkpt lat="47.23245" lon="-2.179">
        <ele>10</ele>
        <time>2016-07-22T12:10:17Z</time>
      </trkpt>
      <trkpt lat="47.23226" lon="-2.17905">
        <ele>11</ele>
        <time>2016-07-22T12:10:22Z</time>
      </trkpt>
      <trkpt lat="47.23206" lon="-2.17907">
        <ele>11</ele>
        <time>2016-07-22T12:10:27Z</time>
      </trkpt>
      <trkpt lat="47.23184" lon="-2.17904">
        <ele>11</ele>
        <time>2016-07-22T12:10:32Z</time>
      </trkpt>
      <trkpt lat="47.23158" lon="-2.17896">
        <ele>11</ele>
        <time>2016-07-22T12:10:37Z</time>
      </trkpt>
      <trkpt lat="47.23133" lon="-2.17879">
        <ele>10</ele>
        <time>2016-07-22T12:10:42Z</time>
      </trkpt>
      <trkpt lat="47.23108" lon="-2.17854">
        <ele>10</ele>
        <time>2016-07-22T12:10:47Z</time>
      </trkpt>
      <trkpt lat="47.23085" lon="-2.17827">
        <ele>9</ele>
        <time>2016-07-22T12:10:52Z</time>
      </trkpt>
      <trkpt lat="47.23063" lon="-2.17802">
        <ele>10</ele>
        <time>2016-07-22T12:10:57Z</time>
      </trkpt>
      <trkpt lat="47.23042" lon="-2.17778">
        <ele>10</ele>
        <time>2016-07-22T12:11:02Z</time>
      </trkpt>
      <trkpt lat="47.23021" lon="-2.17753">
        <ele>10</ele>
        <time>2016-07-22T12:11:07Z</time>
      </trkpt>
      <trkpt lat="47.22999" lon="-2.17728">
        <ele>9</ele>
        <time>2016-07-22T12:11:12Z</time>
      </trkpt>
      <trkpt lat="47.22977" lon="-2.17703">
        <ele>9</ele>
        <time>2016-07-22T12:11:17Z</time>
      </trkpt>
      <trkpt lat="47.22951" lon="-2.17685">
        <ele>10</ele>
        <time>2016-07-22T12:11:22Z</time>
      </trkpt>
      <trkpt lat="47.22927" lon="-2.17662">
        <ele>11</ele>
        <time>2016-07-22T12:11:27Z</time>
      </trkpt>
      <trkpt lat="47.22905" lon="-2.17636">
        <ele>11</ele>
        <time>2016-07-22T12:11:32Z</time>
      </trkpt>
      <trkpt lat="47.22884" lon="-2.17606">
        <ele>10</ele>
        <time>2016-07-22T12:11:37Z</time>
      </trkpt>
      <trkpt lat="47.22868" lon="-2.17575">
        <ele>11</ele>
        <time>2016-07-22T12:11:42Z</time>
      </trkpt>
      <trkpt lat="47.22857" lon="-2.17546">
        <ele>13</ele>
        <time>2016-07-22T12:11:47Z</time>
      </trkpt>
      <trkpt lat="47.22839" lon="-2.17529">
        <ele>13</ele>
        <time>2016-07-22T12:11:52Z</time>
      </trkpt>
      <trkpt lat="47.22821" lon="-2.1751">
        <ele>12</ele>
        <time>2016-07-22T12:11:57Z</time>
      </trkpt>
      <trkpt lat="47.228" lon="-2.17486">
        <ele>9</ele>
        <time>2016-07-22T12:12:02Z</time>
      </trkpt>
      <trkpt lat="47.22768" lon="-2.17442">
        <ele>8</ele>
        <time>2016-07-22T12:12:10Z</time>
      </trkpt>
      <trkpt lat="47.2276" lon="-2.17431">
        <ele>9</ele>
        <time>2016-07-22T12:12:12Z</time>
      </trkpt>
      <trkpt lat="47.22738" lon="-2.17402">
        <ele>8</ele>
        <time>2016-07-22T12:12:17Z</time>
      </trkpt>
      <trkpt lat="47.22718" lon="-2.17373">
        <ele>10</ele>
        <time>2016-07-22T12:12:22Z</time>
      </trkpt>
      <trkpt lat="47.22695" lon="-2.17345">
        <ele>9</ele>
        <time>2016-07-22T12:12:27Z</time>
      </trkpt>
      <trkpt lat="47.22674" lon="-2.17314">
        <ele>9</ele>
        <time>2016-07-22T12:12:32Z</time>
      </trkpt>
      <trkpt lat="47.2265" lon="-2.17281">
        <ele>8</ele>
        <time>2016-07-22T12:12:38Z</time>
      </trkpt>
      <trkpt lat="47.22631" lon="-2.1726">
        <ele>7</ele>
        <time>2016-07-22T12:12:42Z</time>
      </trkpt>
      <trkpt lat="47.2261" lon="-2.17232">
        <ele>6</ele>
        <time>2016-07-22T12:12:47Z</time>
      </trkpt>
      <trkpt lat="47.22589" lon="-2.17205">
        <ele>7</ele>
        <time>2016-07-22T12:12:52Z</time>
      </trkpt>
      <trkpt lat="47.22569" lon="-2.17179">
        <ele>8</ele>
        <time>2016-07-22T12:12:57Z</time>
      </trkpt>
      <trkpt lat="47.22549" lon="-2.17152">
        <ele>10</ele>
        <time>2016-07-22T12:13:02Z</time>
      </trkpt>
      <trkpt lat="47.22528" lon="-2.17126">
        <ele>12</ele>
        <time>2016-07-22T12:13:07Z</time>
      </trkpt>
      <trkpt lat="47.22507" lon="-2.17101">
        <ele>9</ele>
        <time>2016-07-22T12:13:12Z</time>
      </trkpt>
      <trkpt lat="47.22483" lon="-2.17077">
        <ele>9</ele>
        <time>2016-07-22T12:13:17Z</time>
      </trkpt>
      <trkpt lat="47.22463" lon="-2.17051">
        <ele>9</ele>
        <time>2016-07-22T12:13:22Z</time>
      </trkpt>
      <trkpt lat="47.22441" lon="-2.17025">
        <ele>8</ele>
        <time>2016-07-22T12:13:27Z</time>
      </trkpt>
      <trkpt lat="47.2242" lon="-2.16998">
        <ele>9</ele>
        <time>2016-07-22T12:13:32Z</time>
      </trkpt>
      <trkpt lat="47.22399" lon="-2.16971">
        <ele>9</ele>
        <time>2016-07-22T12:13:37Z</time>
      </trkpt>
      <trkpt lat="47.22376" lon="-2.16946">
        <ele>10</ele>
        <time>2016-07-22T12:13:42Z</time>
      </trkpt>
      <trkpt lat="47.22354" lon="-2.16918">
        <ele>9</ele>
        <time>2016-07-22T12:13:47Z</time>
      </trkpt>
      <trkpt lat="47.22328" lon="-2.1689">
        <ele>10</ele>
        <time>2016-07-22T12:13:52Z</time>
      </trkpt>
      <trkpt lat="47.22302" lon="-2.16861">
        <ele>10</ele>
        <time>2016-07-22T12:13:57Z</time>
      </trkpt>
      <trkpt lat="47.22277" lon="-2.16835">
        <ele>7</ele>
        <time>2016-07-22T12:14:02Z</time>
      </trkpt>
      <trkpt lat="47.22251" lon="-2.16803">
        <ele>8</ele>
        <time>2016-07-22T12:14:08Z</time>
      </trkpt>
      <trkpt lat="47.22236" lon="-2.16777">
        <ele>8</ele>
        <time>2016-07-22T12:14:12Z</time>
      </trkpt>
      <trkpt lat="47.22216" lon="-2.16746">
        <ele>7</ele>
        <time>2016-07-22T12:14:17Z</time>
      </trkpt>
      <trkpt lat="47.22196" lon="-2.16719">
        <ele>8</ele>
        <time>2016-07-22T12:14:22Z</time>
      </trkpt>
      <trkpt lat="47.22173" lon="-2.16696">
        <ele>8</ele>
        <time>2016-07-22T12:14:27Z</time>
      </trkpt>
      <trkpt lat="47.22151" lon="-2.16672">
        <ele>10</ele>
        <time>2016-07-22T12:14:32Z</time>
      </trkpt>
      <trkpt lat="47.22124" lon="-2.16641">
        <ele>12</ele>
        <time>2016-07-22T12:14:38Z</time>
      </trkpt>
      <trkpt lat="47.22088" lon="-2.16594">
        <ele>12</ele>
        <time>2016-07-22T12:14:46Z</time>
      </trkpt>
      <trkpt lat="47.22074" lon="-2.16576">
        <ele>10</ele>
        <time>2016-07-22T12:14:49Z</time>
      </trkpt>
      <trkpt lat="47.2205" lon="-2.16553">
        <ele>11</ele>
        <time>2016-07-22T12:14:54Z</time>
      </trkpt>
      <trkpt lat="47.22036" lon="-2.16538">
        <ele>11</ele>
        <time>2016-07-22T12:14:57Z</time>
      </trkpt>
      <trkpt lat="47.22012" lon="-2.1651">
        <ele>10</ele>
        <time>2016-07-22T12:15:02Z</time>
      </trkpt>
      <trkpt lat="47.2199" lon="-2.16483">
        <ele>11</ele>
        <time>2016-07-22T12:15:07Z</time>
      </trkpt>
      <trkpt lat="47.2197" lon="-2.16457">
        <ele>12</ele>
        <time>2016-07-22T12:15:12Z</time>
      </trkpt>
      <trkpt lat="47.21954" lon="-2.16424">
        <ele>16</ele>
        <time>2016-07-22T12:15:17Z</time>
      </trkpt>
      <trkpt lat="47.21935" lon="-2.16386">
        <ele>14</ele>
        <time>2016-07-22T12:15:23Z</time>
      </trkpt>
      <trkpt lat="47.21909" lon="-2.16344">
        <ele>12</ele>
        <time>2016-07-22T12:15:30Z</time>
      </trkpt>
      <trkpt lat="47.21892" lon="-2.1631">
        <ele>12</ele>
        <time>2016-07-22T12:15:35Z</time>
      </trkpt>
      <trkpt lat="47.21885" lon="-2.16298">
        <ele>12</ele>
        <time>2016-07-22T12:15:37Z</time>
      </trkpt>
      <trkpt lat="47.21867" lon="-2.1627">
        <ele>11</ele>
        <time>2016-07-22T12:15:42Z</time>
      </trkpt>
      <trkpt lat="47.21846" lon="-2.16244">
        <ele>6</ele>
        <time>2016-07-22T12:15:47Z</time>
      </trkpt>
      <trkpt lat="47.21822" lon="-2.16229">
        <ele>4</ele>
        <time>2016-07-22T12:15:52Z</time>
      </trkpt>
      <trkpt lat="47.21771" lon="-2.16201">
        <ele>8</ele>
        <time>2016-07-22T12:16:00Z</time>
      </trkpt>
      <trkpt lat="47.21756" lon="-2.16194">
        <ele>4</ele>
        <time>2016-07-22T12:16:02Z</time>
      </trkpt>
      <trkpt lat="47.21725" lon="-2.16178">
        <ele>7</ele>
        <time>2016-07-22T12:16:07Z</time>
      </trkpt>
      <trkpt lat="47.21695" lon="-2.16156">
        <ele>8</ele>
        <time>2016-07-22T12:16:12Z</time>
      </trkpt>
      <trkpt lat="47.21663" lon="-2.16137">
        <ele>6</ele>
        <time>2016-07-22T12:16:17Z</time>
      </trkpt>
      <trkpt lat="47.21609" lon="-2.16103">
        <ele>7</ele>
        <time>2016-07-22T12:16:26Z</time>
      </trkpt>
      <trkpt lat="47.21603" lon="-2.16099">
        <ele>8</ele>
        <time>2016-07-22T12:16:27Z</time>
      </trkpt>
      <trkpt lat="47.21574" lon="-2.16082">
        <ele>9</ele>
        <time>2016-07-22T12:16:32Z</time>
      </trkpt>
      <trkpt lat="47.21545" lon="-2.16065">
        <ele>9</ele>
        <time>2016-07-22T12:16:37Z</time>
      </trkpt>
      <trkpt lat="47.21517" lon="-2.16047">
        <ele>8</ele>
        <time>2016-07-22T12:16:42Z</time>
      </trkpt>
      <trkpt lat="47.21487" lon="-2.16029">
        <ele>9</ele>
        <time>2016-07-22T12:16:47Z</time>
      </trkpt>
      <trkpt lat="47.21457" lon="-2.16011">
        <ele>8</ele>
        <time>2016-07-22T12:16:52Z</time>
      </trkpt>
      <trkpt lat="47.21427" lon="-2.15992">
        <ele>8</ele>
        <time>2016-07-22T12:16:57Z</time>
      </trkpt>
      <trkpt lat="47.21396" lon="-2.15973">
        <ele>8</ele>
        <time>2016-07-22T12:17:02Z</time>
      </trkpt>
      <trkpt lat="47.21363" lon="-2.15955">
        <ele>10</ele>
        <time>2016-07-22T12:17:07Z</time>
      </trkpt>
      <trkpt lat="47.21331" lon="-2.15935">
        <ele>11</ele>
        <time>2016-07-22T12:17:12Z</time>
      </trkpt>
      <trkpt lat="47.21301" lon="-2.15917">
        <ele>13</ele>
        <time>2016-07-22T12:17:17Z</time>
      </trkpt>
      <trkpt lat="47.21272" lon="-2.15898">
        <ele>11</ele>
        <time>2016-07-22T12:17:22Z</time>
      </trkpt>
      <trkpt lat="47.21247" lon="-2.15878">
        <ele>9</ele>
        <time>2016-07-22T12:17:27Z</time>
      </trkpt>
      <trkpt lat="47.21215" lon="-2.15848">
        <ele>8</ele>
        <time>2016-07-22T12:17:33Z</time>
      </trkpt>
      <trkpt lat="47.21181" lon="-2.15799">
        <ele>8</ele>
        <time>2016-07-22T12:17:41Z</time>
      </trkpt>
      <trkpt lat="47.21177" lon="-2.15792">
        <ele>8</ele>
        <time>2016-07-22T12:17:42Z</time>
      </trkpt>
      <trkpt lat="47.21154" lon="-2.15755">
        <ele>8</ele>
        <time>2016-07-22T12:17:48Z</time>
      </trkpt>
      <trkpt lat="47.21142" lon="-2.15745">
        <ele>4</ele>
        <time>2016-07-22T12:17:52Z</time>
      </trkpt>
      <trkpt lat="47.21125" lon="-2.15739">
        <ele>7</ele>
        <time>2016-07-22T12:17:58Z</time>
      </trkpt>
      <trkpt lat="47.21109" lon="-2.15735">
        <ele>4</ele>
        <time>2016-07-22T12:18:02Z</time>
      </trkpt>
      <trkpt lat="47.21087" lon="-2.15731">
        <ele>5</ele>
        <time>2016-07-22T12:18:07Z</time>
      </trkpt>
      <trkpt lat="47.21057" lon="-2.15719">
        <ele>9</ele>
        <time>2016-07-22T12:18:13Z</time>
      </trkpt>
      <trkpt lat="47.21036" lon="-2.15711">
        <ele>6</ele>
        <time>2016-07-22T12:18:18Z</time>
      </trkpt>
      <trkpt lat="47.21017" lon="-2.15704">
        <ele>6</ele>
        <time>2016-07-22T12:18:22Z</time>
      </trkpt>
      <trkpt lat="47.20992" lon="-2.15696">
        <ele>4</ele>
        <time>2016-07-22T12:18:27Z</time>
      </trkpt>
      <trkpt lat="47.20966" lon="-2.15687">
        <ele>4</ele>
        <time>2016-07-22T12:18:32Z</time>
      </trkpt>
      <trkpt lat="47.20936" lon="-2.15676">
        <ele>8</ele>
        <time>2016-07-22T12:18:38Z</time>
      </trkpt>
      <trkpt lat="47.20905" lon="-2.15667">
        <ele>9</ele>
        <time>2016-07-22T12:18:44Z</time>
      </trkpt>
      <trkpt lat="47.20872" lon="-2.15655">
        <ele>10</ele>
        <time>2016-07-22T12:18:50Z</time>
      </trkpt>
      <trkpt lat="47.20861" lon="-2.15652">
        <ele>9</ele>
        <time>2016-07-22T12:18:52Z</time>
      </trkpt>
      <trkpt lat="47.20836" lon="-2.15645">
        <ele>10</ele>
        <time>2016-07-22T12:18:57Z</time>
      </trkpt>
      <trkpt lat="47.20811" lon="-2.15633">
        <ele>9</ele>
        <time>2016-07-22T12:19:02Z</time>
      </trkpt>
      <trkpt lat="47.20785" lon="-2.15624">
        <ele>12</ele>
        <time>2016-07-22T12:19:07Z</time>
      </trkpt>
      <trkpt lat="47.20759" lon="-2.15614">
        <ele>9</ele>
        <time>2016-07-22T12:19:12Z</time>
      </trkpt>
      <trkpt lat="47.20731" lon="-2.15606">
        <ele>9</ele>
        <time>2016-07-22T12:19:17Z</time>
      </trkpt>
      <trkpt lat="47.20701" lon="-2.15594">
        <ele>10</ele>
        <time>2016-07-22T12:19:23Z</time>
      </trkpt>
      <trkpt lat="47.20681" lon="-2.15586">
        <ele>13</ele>
        <time>2016-07-22T12:19:27Z</time>
      </trkpt>
      <trkpt lat="47.20658" lon="-2.15576">
        <ele>12</ele>
        <time>2016-07-22T12:19:33Z</time>
      </trkpt>
      <trkpt lat="47.20646" lon="-2.15585">
        <ele>9</ele>
        <time>2016-07-22T12:19:37Z</time>
      </trkpt>
      <trkpt lat="47.20627" lon="-2.15584">
        <ele>10</ele>
        <time>2016-07-22T12:19:42Z</time>
      </trkpt>
      <trkpt lat="47.20613" lon="-2.15562">
        <ele>9</ele>
        <time>2016-07-22T12:19:47Z</time>
      </trkpt>
      <trkpt lat="47.20584" lon="-2.15553">
        <ele>9</ele>
        <time>2016-07-22T12:19:53Z</time>
      </trkpt>
      <trkpt lat="47.2055" lon="-2.15539">
        <ele>12</ele>
        <time>2016-07-22T12:20:00Z</time>
      </trkpt>
      <trkpt lat="47.20538" lon="-2.15536">
        <ele>12</ele>
        <time>2016-07-22T12:20:02Z</time>
      </trkpt>
      <trkpt lat="47.20494" lon="-2.15518">
        <ele>12</ele>
        <time>2016-07-22T12:20:10Z</time>
      </trkpt>
      <trkpt lat="47.20485" lon="-2.15516">
        <ele>13</ele>
        <time>2016-07-22T12:20:12Z</time>
      </trkpt>
      <trkpt lat="47.20462" lon="-2.15502">
        <ele>17</ele>
        <time>2016-07-22T12:20:19Z</time>
      </trkpt>
      <trkpt lat="47.20449" lon="-2.15496">
        <ele>17</ele>
        <time>2016-07-22T12:20:22Z</time>
      </trkpt>
      <trkpt lat="47.20426" lon="-2.15479">
        <ele>16</ele>
        <time>2016-07-22T12:20:27Z</time>
      </trkpt>
      <trkpt lat="47.20408" lon="-2.15458">
        <ele>20</ele>
        <time>2016-07-22T12:20:32Z</time>
      </trkpt>
      <trkpt lat="47.20375" lon="-2.15414">
        <ele>21</ele>
        <time>2016-07-22T12:20:41Z</time>
      </trkpt>
      <trkpt lat="47.20374" lon="-2.15409">
        <ele>22</ele>
        <time>2016-07-22T12:20:42Z</time>
      </trkpt>
      <trkpt lat="47.2036" lon="-2.15381">
        <ele>21</ele>
        <time>2016-07-22T12:20:48Z</time>
      </trkpt>
      <trkpt lat="47.20349" lon="-2.15351">
        <ele>21</ele>
        <time>2016-07-22T12:20:53Z</time>
      </trkpt>
      <trkpt lat="47.20337" lon="-2.15324">
        <ele>20</ele>
        <time>2016-07-22T12:20:58Z</time>
      </trkpt>
      <trkpt lat="47.20328" lon="-2.15297">
        <ele>19</ele>
        <time>2016-07-22T12:21:02Z</time>
      </trkpt>
      <trkpt lat="47.20303" lon="-2.15266">
        <ele>19</ele>
        <time>2016-07-22T12:21:09Z</time>
      </trkpt>
      <trkpt lat="47.20296" lon="-2.15255">
        <ele>21</ele>
        <time>2016-07-22T12:21:12Z</time>
      </trkpt>
      <trkpt lat="47.20274" lon="-2.1524">
        <ele>17</ele>
        <time>2016-07-22T12:21:17Z</time>
      </trkpt>
      <trkpt lat="47.20232" lon="-2.1526">
        <ele>17</ele>
        <time>2016-07-22T12:21:26Z</time>
      </trkpt>
      <trkpt lat="47.20224" lon="-2.1526">
        <ele>16</ele>
        <time>2016-07-22T12:21:27Z</time>
      </trkpt>
      <trkpt lat="47.20198" lon="-2.15275">
        <ele>15</ele>
        <time>2016-07-22T12:21:32Z</time>
      </trkpt>
      <trkpt lat="47.20162" lon="-2.15299">
        <ele>17</ele>
        <time>2016-07-22T12:21:40Z</time>
      </trkpt>
      <trkpt lat="47.2015" lon="-2.15302">
        <ele>16</ele>
        <time>2016-07-22T12:21:42Z</time>
      </trkpt>
      <trkpt lat="47.20126" lon="-2.15313">
        <ele>15</ele>
        <time>2016-07-22T12:21:47Z</time>
      </trkpt>
      <trkpt lat="47.20095" lon="-2.15319">
        <ele>13</ele>
        <time>2016-07-22T12:21:52Z</time>
      </trkpt>
      <trkpt lat="47.20048" lon="-2.1532">
        <ele>12</ele>
        <time>2016-07-22T12:22:01Z</time>
      </trkpt>
      <trkpt lat="47.20043" lon="-2.1532">
        <ele>14</ele>
        <time>2016-07-22T12:22:02Z</time>
      </trkpt>
      <trkpt lat="47.20009" lon="-2.15313">
        <ele>21</ele>
        <time>2016-07-22T12:22:10Z</time>
      </trkpt>
      <trkpt lat="47.2" lon="-2.15312">
        <ele>22</ele>
        <time>2016-07-22T12:22:12Z</time>
      </trkpt>
      <trkpt lat="47.1995" lon="-2.15303">
        <ele>22</ele>
        <time>2016-07-22T12:22:21Z</time>
      </trkpt>
      <trkpt lat="47.19935" lon="-2.15302">
        <ele>21</ele>
        <time>2016-07-22T12:22:24Z</time>
      </trkpt>
      <trkpt lat="47.19924" lon="-2.15301">
        <ele>17</ele>
        <time>2016-07-22T12:22:27Z</time>
      </trkpt>
      <trkpt lat="47.19904" lon="-2.15301">
        <ele>20</ele>
        <time>2016-07-22T12:22:33Z</time>
      </trkpt>
      <trkpt lat="47.19884" lon="-2.15292">
        <ele>25</ele>
        <time>2016-07-22T12:22:38Z</time>
      </trkpt>
      <trkpt lat="47.19871" lon="-2.1529">
        <ele>26</ele>
        <time>2016-07-22T12:22:42Z</time>
      </trkpt>
      <trkpt lat="47.19839" lon="-2.15287">
        <ele>25</ele>
        <time>2016-07-22T12:22:51Z</time>
      </trkpt>
      <trkpt lat="47.19836" lon="-2.15287">
        <ele>25</ele>
        <time>2016-07-22T12:22:52Z</time>
      </trkpt>
      <trkpt lat="47.19809" lon="-2.15282">
        <ele>18</ele>
        <time>2016-07-22T12:22:58Z</time>
      </trkpt>
      <trkpt lat="47.19787" lon="-2.15278">
        <ele>15</ele>
        <time>2016-07-22T12:23:04Z</time>
      </trkpt>
      <trkpt lat="47.19776" lon="-2.1528">
        <ele>15</ele>
        <time>2016-07-22T12:23:08Z</time>
      </trkpt>
      <trkpt lat="47.19752" lon="-2.1528">
        <ele>19</ele>
        <time>2016-07-22T12:23:14Z</time>
      </trkpt>
      <trkpt lat="47.19736" lon="-2.15289">
        <ele>20</ele>
        <time>2016-07-22T12:23:18Z</time>
      </trkpt>
      <trkpt lat="47.19719" lon="-2.15304">
        <ele>18</ele>
        <time>2016-07-22T12:23:22Z</time>
      </trkpt>
      <trkpt lat="47.19689" lon="-2.15323">
        <ele>19</ele>
        <time>2016-07-22T12:23:28Z</time>
      </trkpt>
      <trkpt lat="47.19667" lon="-2.15333">
        <ele>18</ele>
        <time>2016-07-22T12:23:32Z</time>
      </trkpt>
      <trkpt lat="47.19632" lon="-2.15352">
        <ele>16</ele>
        <time>2016-07-22T12:23:38Z</time>
      </trkpt>
      <trkpt lat="47.19606" lon="-2.15367">
        <ele>15</ele>
        <time>2016-07-22T12:23:42Z</time>
      </trkpt>
      <trkpt lat="47.19572" lon="-2.15391">
        <ele>14</ele>
        <time>2016-07-22T12:23:47Z</time>
      </trkpt>
      <trkpt lat="47.19541" lon="-2.15416">
        <ele>14</ele>
        <time>2016-07-22T12:23:52Z</time>
      </trkpt>
      <trkpt lat="47.19514" lon="-2.15434">
        <ele>15</ele>
        <time>2016-07-22T12:23:57Z</time>
      </trkpt>
      <trkpt lat="47.1949" lon="-2.15449">
        <ele>15</ele>
        <time>2016-07-22T12:24:02Z</time>
      </trkpt>
      <trkpt lat="47.19468" lon="-2.15462">
        <ele>15</ele>
        <time>2016-07-22T12:24:07Z</time>
      </trkpt>
      <trkpt lat="47.19448" lon="-2.15471">
        <ele>16</ele>
        <time>2016-07-22T12:24:12Z</time>
      </trkpt>
      <trkpt lat="47.19429" lon="-2.15478">
        <ele>16</ele>
        <time>2016-07-22T12:24:17Z</time>
      </trkpt>
      <trkpt lat="47.19412" lon="-2.15485">
        <ele>19</ele>
        <time>2016-07-22T12:24:22Z</time>
      </trkpt>
      <trkpt lat="47.19393" lon="-2.15492">
        <ele>18</ele>
        <time>2016-07-22T12:24:27Z</time>
      </trkpt>
      <trkpt lat="47.19377" lon="-2.15499">
        <ele>17</ele>
        <time>2016-07-22T12:24:32Z</time>
      </trkpt>
      <trkpt lat="47.1936" lon="-2.15505">
        <ele>19</ele>
        <time>2016-07-22T12:24:37Z</time>
      </trkpt>
      <trkpt lat="47.19342" lon="-2.15512">
        <ele>21</ele>
        <time>2016-07-22T12:24:42Z</time>
      </trkpt>
      <trkpt lat="47.19325" lon="-2.15516">
        <ele>22</ele>
        <time>2016-07-22T12:24:47Z</time>
      </trkpt>
      <trkpt lat="47.19306" lon="-2.1552">
        <ele>23</ele>
        <time>2016-07-22T12:24:52Z</time>
      </trkpt>
      <trkpt lat="47.19289" lon="-2.15524">
        <ele>24</ele>
        <time>2016-07-22T12:24:57Z</time>
      </trkpt>
      <trkpt lat="47.19273" lon="-2.15528">
        <ele>25</ele>
        <time>2016-07-22T12:25:02Z</time>
      </trkpt>
      <trkpt lat="47.19259" lon="-2.15532">
        <ele>25</ele>
        <time>2016-07-22T12:25:07Z</time>
      </trkpt>
      <trkpt lat="47.19238" lon="-2.15536">
        <ele>26</ele>
        <time>2016-07-22T12:25:12Z</time>
      </trkpt>
      <trkpt lat="47.19217" lon="-2.15541">
        <ele>27</ele>
        <time>2016-07-22T12:25:17Z</time>
      </trkpt>
      <trkpt lat="47.19197" lon="-2.15545">
        <ele>28</ele>
        <time>2016-07-22T12:25:22Z</time>
      </trkpt>
      <trkpt lat="47.19178" lon="-2.15549">
        <ele>29</ele>
        <time>2016-07-22T12:25:27Z</time>
      </trkpt>
      <trkpt lat="47.19158" lon="-2.15554">
        <ele>30</ele>
        <time>2016-07-22T12:25:32Z</time>
      </trkpt>
      <trkpt lat="47.19139" lon="-2.1556">
        <ele>31</ele>
        <time>2016-07-22T12:25:37Z</time>
      </trkpt>
      <trkpt lat="47.19117" lon="-2.15565">
        <ele>32</ele>
        <time>2016-07-22T12:25:42Z</time>
      </trkpt>
      <trkpt lat="47.19097" lon="-2.15571">
        <ele>34</ele>
        <time>2016-07-22T12:25:47Z</time>
      </trkpt>
      <trkpt lat="47.19078" lon="-2.15577">
        <ele>35</ele>
        <time>2016-07-22T12:25:52Z</time>
      </trkpt>
      <trkpt lat="47.1906" lon="-2.15583">
        <ele>34</ele>
        <time>2016-07-22T12:25:57Z</time>
      </trkpt>
      <trkpt lat="47.19034" lon="-2.15592">
        <ele>33</ele>
        <time>2016-07-22T12:26:06Z</time>
      </trkpt>
      <trkpt lat="47.19019" lon="-2.15603">
        <ele>34</ele>
        <time>2016-07-22T12:26:11Z</time>
      </trkpt>
      <trkpt lat="47.19016" lon="-2.15606">
        <ele>35</ele>
        <time>2016-07-22T12:26:12Z</time>
      </trkpt>
      <trkpt lat="47.18999" lon="-2.15625">
        <ele>34</ele>
        <time>2016-07-22T12:26:17Z</time>
      </trkpt>
      <trkpt lat="47.1898" lon="-2.15645">
        <ele>36</ele>
        <time>2016-07-22T12:26:22Z</time>
      </trkpt>
      <trkpt lat="47.1895" lon="-2.15679">
        <ele>33</ele>
        <time>2016-07-22T12:26:30Z</time>
      </trkpt>
      <trkpt lat="47.18941" lon="-2.15689">
        <ele>33</ele>
        <time>2016-07-22T12:26:32Z</time>
      </trkpt>
      <trkpt lat="47.1892" lon="-2.15714">
        <ele>33</ele>
        <time>2016-07-22T12:26:37Z</time>
      </trkpt>
      <trkpt lat="47.18884" lon="-2.15768">
        <ele>30</ele>
        <time>2016-07-22T12:26:46Z</time>
      </trkpt>
      <trkpt lat="47.18871" lon="-2.15788">
        <ele>29</ele>
        <time>2016-07-22T12:26:49Z</time>
      </trkpt>
      <trkpt lat="47.18844" lon="-2.15834">
        <ele>28</ele>
        <time>2016-07-22T12:26:56Z</time>
      </trkpt>
      <trkpt lat="47.18828" lon="-2.15867">
        <ele>28</ele>
        <time>2016-07-22T12:27:01Z</time>
      </trkpt>
      <trkpt lat="47.18824" lon="-2.15872">
        <ele>28</ele>
        <time>2016-07-22T12:27:02Z</time>
      </trkpt>
      <trkpt lat="47.18807" lon="-2.15908">
        <ele>27</ele>
        <time>2016-07-22T12:27:07Z</time>
      </trkpt>
      <trkpt lat="47.18788" lon="-2.15942">
        <ele>26</ele>
        <time>2016-07-22T12:27:12Z</time>
      </trkpt>
      <trkpt lat="47.1876" lon="-2.15961">
        <ele>25</ele>
        <time>2016-07-22T12:27:17Z</time>
      </trkpt>
      <trkpt lat="47.18732" lon="-2.15969">
        <ele>24</ele>
        <time>2016-07-22T12:27:22Z</time>
      </trkpt>
      <trkpt lat="47.18706" lon="-2.15977">
        <ele>23</ele>
        <time>2016-07-22T12:27:27Z</time>
      </trkpt>
      <trkpt lat="47.1868" lon="-2.15985">
        <ele>22</ele>
        <time>2016-07-22T12:27:32Z</time>
      </trkpt>
      <trkpt lat="47.18656" lon="-2.15992">
        <ele>22</ele>
        <time>2016-07-22T12:27:37Z</time>
      </trkpt>
      <trkpt lat="47.18631" lon="-2.16002">
        <ele>21</ele>
        <time>2016-07-22T12:27:42Z</time>
      </trkpt>
      <trkpt lat="47.18606" lon="-2.16018">
        <ele>20</ele>
        <time>2016-07-22T12:27:47Z</time>
      </trkpt>
      <trkpt lat="47.1858" lon="-2.16035">
        <ele>18</ele>
        <time>2016-07-22T12:27:52Z</time>
      </trkpt>
      <trkpt lat="47.18556" lon="-2.1605">
        <ele>21</ele>
        <time>2016-07-22T12:27:57Z</time>
      </trkpt>
      <trkpt lat="47.18533" lon="-2.16069">
        <ele>19</ele>
        <time>2016-07-22T12:28:02Z</time>
      </trkpt>
      <trkpt lat="47.18504" lon="-2.16093">
        <ele>18</ele>
        <time>2016-07-22T12:28:08Z</time>
      </trkpt>
      <trkpt lat="47.18485" lon="-2.16111">
        <ele>19</ele>
        <time>2016-07-22T12:28:12Z</time>
      </trkpt>
      <trkpt lat="47.18457" lon="-2.16131">
        <ele>18</ele>
        <time>2016-07-22T12:28:17Z</time>
      </trkpt>
      <trkpt lat="47.18426" lon="-2.16147">
        <ele>17</ele>
        <time>2016-07-22T12:28:22Z</time>
      </trkpt>
      <trkpt lat="47.18396" lon="-2.16162">
        <ele>18</ele>
        <time>2016-07-22T12:28:27Z</time>
      </trkpt>
      <trkpt lat="47.18367" lon="-2.16173">
        <ele>19</ele>
        <time>2016-07-22T12:28:32Z</time>
      </trkpt>
      <trkpt lat="47.18341" lon="-2.16181">
        <ele>21</ele>
        <time>2016-07-22T12:28:37Z</time>
      </trkpt>
      <trkpt lat="47.18315" lon="-2.16198">
        <ele>21</ele>
        <time>2016-07-22T12:28:42Z</time>
      </trkpt>
      <trkpt lat="47.1829" lon="-2.16216">
        <ele>19</ele>
        <time>2016-07-22T12:28:47Z</time>
      </trkpt>
      <trkpt lat="47.18267" lon="-2.16221">
        <ele>17</ele>
        <time>2016-07-22T12:28:52Z</time>
      </trkpt>
      <trkpt lat="47.18234" lon="-2.16202">
        <ele>15</ele>
        <time>2016-07-22T12:28:58Z</time>
      </trkpt>
      <trkpt lat="47.18215" lon="-2.16192">
        <ele>15</ele>
        <time>2016-07-22T12:29:02Z</time>
      </trkpt>
      <trkpt lat="47.1819" lon="-2.16191">
        <ele>12</ele>
        <time>2016-07-22T12:29:07Z</time>
      </trkpt>
      <trkpt lat="47.18163" lon="-2.16203">
        <ele>12</ele>
        <time>2016-07-22T12:29:12Z</time>
      </trkpt>
      <trkpt lat="47.18139" lon="-2.16216">
        <ele>11</ele>
        <time>2016-07-22T12:29:17Z</time>
      </trkpt>
      <trkpt lat="47.18114" lon="-2.16228">
        <ele>12</ele>
        <time>2016-07-22T12:29:22Z</time>
      </trkpt>
      <trkpt lat="47.18091" lon="-2.16243">
        <ele>12</ele>
        <time>2016-07-22T12:29:27Z</time>
      </trkpt>
      <trkpt lat="47.18071" lon="-2.16254">
        <ele>12</ele>
        <time>2016-07-22T12:29:32Z</time>
      </trkpt>
      <trkpt lat="47.18049" lon="-2.16269">
        <ele>13</ele>
        <time>2016-07-22T12:29:37Z</time>
      </trkpt>
      <trkpt lat="47.18029" lon="-2.16284">
        <ele>13</ele>
        <time>2016-07-22T12:29:42Z</time>
      </trkpt>
      <trkpt lat="47.18012" lon="-2.16299">
        <ele>14</ele>
        <time>2016-07-22T12:29:47Z</time>
      </trkpt>
      <trkpt lat="47.17992" lon="-2.16315">
        <ele>14</ele>
        <time>2016-07-22T12:29:52Z</time>
      </trkpt>
      <trkpt lat="47.17968" lon="-2.16324">
        <ele>14</ele>
        <time>2016-07-22T12:29:57Z</time>
      </trkpt>
      <trkpt lat="47.17944" lon="-2.16329">
        <ele>14</ele>
        <time>2016-07-22T12:30:02Z</time>
      </trkpt>
      <trkpt lat="47.1792" lon="-2.16332">
        <ele>15</ele>
        <time>2016-07-22T12:30:07Z</time>
      </trkpt>
      <trkpt lat="47.17897" lon="-2.16333">
        <ele>16</ele>
        <time>2016-07-22T12:30:12Z</time>
      </trkpt>
      <trkpt lat="47.17872" lon="-2.16334">
        <ele>17</ele>
        <time>2016-07-22T12:30:17Z</time>
      </trkpt>
      <trkpt lat="47.17847" lon="-2.16339">
        <ele>17</ele>
        <time>2016-07-22T12:30:22Z</time>
      </trkpt>
      <trkpt lat="47.17821" lon="-2.16342">
        <ele>16</ele>
        <time>2016-07-22T12:30:27Z</time>
      </trkpt>
      <trkpt lat="47.17795" lon="-2.16346">
        <ele>17</ele>
        <time>2016-07-22T12:30:32Z</time>
      </trkpt>
      <trkpt lat="47.17769" lon="-2.16353">
        <ele>17</ele>
        <time>2016-07-22T12:30:37Z</time>
      </trkpt>
      <trkpt lat="47.17742" lon="-2.16361">
        <ele>17</ele>
        <time>2016-07-22T12:30:42Z</time>
      </trkpt>
      <trkpt lat="47.17716" lon="-2.16368">
        <ele>17</ele>
        <time>2016-07-22T12:30:47Z</time>
      </trkpt>
      <trkpt lat="47.17687" lon="-2.16368">
        <ele>17</ele>
        <time>2016-07-22T12:30:52Z</time>
      </trkpt>
      <trkpt lat="47.1766" lon="-2.16368">
        <ele>17</ele>
        <time>2016-07-22T12:30:57Z</time>
      </trkpt>
      <trkpt lat="47.17633" lon="-2.16377">
        <ele>16</ele>
        <time>2016-07-22T12:31:02Z</time>
      </trkpt>
      <trkpt lat="47.17607" lon="-2.16384">
        <ele>16</ele>
        <time>2016-07-22T12:31:07Z</time>
      </trkpt>
      <trkpt lat="47.17581" lon="-2.1639">
        <ele>16</ele>
        <time>2016-07-22T12:31:12Z</time>
      </trkpt>
      <trkpt lat="47.17556" lon="-2.16396">
        <ele>16</ele>
        <time>2016-07-22T12:31:17Z</time>
      </trkpt>
      <trkpt lat="47.1753" lon="-2.16403">
        <ele>16</ele>
        <time>2016-07-22T12:31:22Z</time>
      </trkpt>
      <trkpt lat="47.17504" lon="-2.16409">
        <ele>18</ele>
        <time>2016-07-22T12:31:27Z</time>
      </trkpt>
      <trkpt lat="47.17479" lon="-2.16413">
        <ele>18</ele>
        <time>2016-07-22T12:31:32Z</time>
      </trkpt>
      <trkpt lat="47.17454" lon="-2.16424">
        <ele>19</ele>
        <time>2016-07-22T12:31:37Z</time>
      </trkpt>
      <trkpt lat="47.1743" lon="-2.16437">
        <ele>17</ele>
        <time>2016-07-22T12:31:42Z</time>
      </trkpt>
      <trkpt lat="47.17405" lon="-2.16445">
        <ele>15</ele>
        <time>2016-07-22T12:31:47Z</time>
      </trkpt>
      <trkpt lat="47.1738" lon="-2.16452">
        <ele>15</ele>
        <time>2016-07-22T12:31:52Z</time>
      </trkpt>
      <trkpt lat="47.17354" lon="-2.16459">
        <ele>16</ele>
        <time>2016-07-22T12:31:57Z</time>
      </trkpt>
      <trkpt lat="47.17329" lon="-2.16466">
        <ele>16</ele>
        <time>2016-07-22T12:32:02Z</time>
      </trkpt>
      <trkpt lat="47.17306" lon="-2.16471">
        <ele>16</ele>
        <time>2016-07-22T12:32:07Z</time>
      </trkpt>
      <trkpt lat="47.1728" lon="-2.1648">
        <ele>15</ele>
        <time>2016-07-22T12:32:12Z</time>
      </trkpt>
      <trkpt lat="47.17255" lon="-2.16488">
        <ele>13</ele>
        <time>2016-07-22T12:32:17Z</time>
      </trkpt>
      <trkpt lat="47.17226" lon="-2.16493">
        <ele>16</ele>
        <time>2016-07-22T12:32:22Z</time>
      </trkpt>
      <trkpt lat="47.17196" lon="-2.16505">
        <ele>17</ele>
        <time>2016-07-22T12:32:27Z</time>
      </trkpt>
      <trkpt lat="47.17169" lon="-2.16517">
        <ele>17</ele>
        <time>2016-07-22T12:32:32Z</time>
      </trkpt>
      <trkpt lat="47.17142" lon="-2.16524">
        <ele>17</ele>
        <time>2016-07-22T12:32:37Z</time>
      </trkpt>
      <trkpt lat="47.17118" lon="-2.1653">
        <ele>15</ele>
        <time>2016-07-22T12:32:42Z</time>
      </trkpt>
      <trkpt lat="47.17095" lon="-2.16542">
        <ele>12</ele>
        <time>2016-07-22T12:32:47Z</time>
      </trkpt>
      <trkpt lat="47.17068" lon="-2.1655">
        <ele>11</ele>
        <time>2016-07-22T12:32:52Z</time>
      </trkpt>
      <trkpt lat="47.17042" lon="-2.16559">
        <ele>12</ele>
        <time>2016-07-22T12:32:57Z</time>
      </trkpt>
      <trkpt lat="47.17019" lon="-2.16567">
        <ele>10</ele>
        <time>2016-07-22T12:33:02Z</time>
      </trkpt>
      <trkpt lat="47.16995" lon="-2.16576">
        <ele>11</ele>
        <time>2016-07-22T12:33:07Z</time>
      </trkpt>
      <trkpt lat="47.1697" lon="-2.16584">
        <ele>12</ele>
        <time>2016-07-22T12:33:12Z</time>
      </trkpt>
      <trkpt lat="47.16946" lon="-2.16591">
        <ele>15</ele>
        <time>2016-07-22T12:33:17Z</time>
      </trkpt>
      <trkpt lat="47.16917" lon="-2.16599">
        <ele>15</ele>
        <time>2016-07-22T12:33:23Z</time>
      </trkpt>
      <trkpt lat="47.16898" lon="-2.16605">
        <ele>16</ele>
        <time>2016-07-22T12:33:27Z</time>
      </trkpt>
      <trkpt lat="47.16877" lon="-2.16613">
        <ele>17</ele>
        <time>2016-07-22T12:33:32Z</time>
      </trkpt>
      <trkpt lat="47.16856" lon="-2.16622">
        <ele>16</ele>
        <time>2016-07-22T12:33:39Z</time>
      </trkpt>
      <trkpt lat="47.1685" lon="-2.16624">
        <ele>17</ele>
        <time>2016-07-22T12:33:42Z</time>
      </trkpt>
      <trkpt lat="47.16831" lon="-2.16632">
        <ele>18</ele>
        <time>2016-07-22T12:33:47Z</time>
      </trkpt>
      <trkpt lat="47.16808" lon="-2.16639">
        <ele>17</ele>
        <time>2016-07-22T12:33:52Z</time>
      </trkpt>
      <trkpt lat="47.16786" lon="-2.16647">
        <ele>17</ele>
        <time>2016-07-22T12:33:57Z</time>
      </trkpt>
      <trkpt lat="47.16765" lon="-2.16654">
        <ele>16</ele>
        <time>2016-07-22T12:34:02Z</time>
      </trkpt>
      <trkpt lat="47.16738" lon="-2.16659">
        <ele>13</ele>
        <time>2016-07-22T12:34:07Z</time>
      </trkpt>
      <trkpt lat="47.16712" lon="-2.1667">
        <ele>16</ele>
        <time>2016-07-22T12:34:12Z</time>
      </trkpt>
      <trkpt lat="47.16686" lon="-2.1668">
        <ele>16</ele>
        <time>2016-07-22T12:34:17Z</time>
      </trkpt>
      <trkpt lat="47.16658" lon="-2.1669">
        <ele>16</ele>
        <time>2016-07-22T12:34:22Z</time>
      </trkpt>
      <trkpt lat="47.16631" lon="-2.16699">
        <ele>15</ele>
        <time>2016-07-22T12:34:27Z</time>
      </trkpt>
      <trkpt lat="47.166" lon="-2.1671">
        <ele>15</ele>
        <time>2016-07-22T12:34:33Z</time>
      </trkpt>
      <trkpt lat="47.16578" lon="-2.16718">
        <ele>16</ele>
        <time>2016-07-22T12:34:37Z</time>
      </trkpt>
      <trkpt lat="47.16555" lon="-2.16732">
        <ele>16</ele>
        <time>2016-07-22T12:34:42Z</time>
      </trkpt>
      <trkpt lat="47.16535" lon="-2.16748">
        <ele>17</ele>
        <time>2016-07-22T12:34:47Z</time>
      </trkpt>
      <trkpt lat="47.16516" lon="-2.16771">
        <ele>16</ele>
        <time>2016-07-22T12:34:52Z</time>
      </trkpt>
      <trkpt lat="47.16494" lon="-2.16793">
        <ele>16</ele>
        <time>2016-07-22T12:34:57Z</time>
      </trkpt>
      <trkpt lat="47.16472" lon="-2.16816">
        <ele>14</ele>
        <time>2016-07-22T12:35:02Z</time>
      </trkpt>
      <trkpt lat="47.16452" lon="-2.16836">
        <ele>14</ele>
        <time>2016-07-22T12:35:07Z</time>
      </trkpt>
      <trkpt lat="47.16441" lon="-2.16852">
        <ele>15</ele>
        <time>2016-07-22T12:35:12Z</time>
      </trkpt>
      <trkpt lat="47.16438" lon="-2.16861">
        <ele>14</ele>
        <time>2016-07-22T12:35:17Z</time>
      </trkpt>
      <trkpt lat="47.16439" lon="-2.16861">
        <ele>14</ele>
        <time>2016-07-22T12:35:22Z</time>
      </trkpt>
      <trkpt lat="47.16439" lon="-2.16861">
        <ele>14</ele>
        <time>2016-07-22T12:35:27Z</time>
      </trkpt>
    </trkseg>
  </trk>
</gpx>